Jump to content


DELTA AIRLINES FLIGHT DL2488 FLOWN ON 02-28-2018 BY CAPTAIN DEREK ROGY

Pilot StatsCaptain Derek Rogy (LDP86) • 1,600.5 total hours • 835 total flights [View Logbook]
FLIGHT DETAILS
StatusReceived and approved on 2018-02-28 at 21:02:56
Origin AirportLogan Intl (KBOS) • Boston, Massachusetts, United States (19 feet MSL)
Filed Flight PlanKBOS GDM Q935 DERLO Q818 FNT J36 DUTYS J16 MCW J148 ONL J94 OCS J154 TCH J56 MVA J84 OAK KSFO
Destination AirportSan Francisco Intl (KSFO) • San Francisco, California, United States (13 feet MSL)
Alternate AirportNone Filed
AirlineDelta Airlines
AircraftBoeing 757-200 | Winglets (75W / B757-200)
FS Aircraft Used757-200 Delta N548US ETOPS Winglets
Cruising AltitudeFL380
Distance Flown2,345 nautical miles
Passengers Onboard114 passengers (61.29% full)
DEPARTURE DETAILS
Time Out06:46:57
Taxi Data207,274 lbs total with 75,549 lbs of fuel onboard
Takeoff Data07:18:26 (31 minutes after leaving gate/ramp) • 205,158 lbs total • 10° pitch at 154 knots
Departure METARKBOS 281654Z 18009KT 10SM FEW250 14/M02 A2998 RMK AO2 SLP151 T01441017
ARRIVAL DETAILS
Landing Data10:48:59 • 157,075 lbs total • 5° pitch doing 114 knots at a rate of -177.63 feet/minute with 24,712 lbs of fuel onboard
Time In10:54:57 (6 minutes after landing)
Ramp Weight156,438 lbs total
Total Fuel Used50,837 lbs
Total Block Time07:07:25 (7.1 hours) while 37 minutes were spent on the ground
Arrival METARKSFO 010156Z 18005KT 10SM FEW010 SCT014 BKN060 OVC150 11/07 A3012 RMK AO2 SLP200 T01110067
MISCELLANEOUS DETAILS
LiveDISPATCH Version4.8.3.1
FS Version
FSUIPC Version5.12
OS VersionWindows 7 32-bit
Screen Resolution1920 x 1200
Pilot's CommentsNo Comments Reported
FLIGHT MAP